Terminal Aerodrome Forecast
Issued by NWS Twin Cities, MN

Home | Current Version | Previous Version | Text Only | Print | Product List | Glossary On
Versions: 1 2 3 4 5 6 7 8 9 10 11 12 13 14 15 16 17 18 19 20 21 22 23 24 25 26 27 28 29 30
855
FTUS43 KMPX 251133
TAFMSP
TAF
KMSP 251133Z 2512/2618 24006KT P6SM FEW250
     FM251700 27014G22KT P6SM SCT045
     FM260100 29005KT P6SM SKC=

USA.gov is the U.S. government's official web portal to all federal, state and local government web resources and services.